createdAt,value
2022-11-03T00:02:03.722Z,1.83
2022-11-03T00:04:30.679Z,1.90
2022-11-03T00:06:57.523Z,2.00
2022-11-03T00:09:27.153Z,1.90
2022-11-03T00:11:54.319Z,1.70
2022-11-03T00:14:21.178Z,1.80
2022-11-03T00:16:48.400Z,1.90
2022-11-03T00:19:17.089Z,1.90
2022-11-03T00:21:44.750Z,1.75
2022-11-03T00:24:12.201Z,1.70
2022-11-03T00:26:39.545Z,1.80
2022-11-03T00:29:12.005Z,1.70
2022-11-03T00:31:40.670Z,1.67
2022-11-03T00:34:07.997Z,1.88
2022-11-03T00:36:36.887Z,1.90
2022-11-03T00:39:05.045Z,1.73
2022-11-03T00:41:32.202Z,2.00
2022-11-03T00:43:59.581Z,1.90
2022-11-03T00:46:27.016Z,1.80
2022-11-03T00:48:53.816Z,1.95
2022-11-03T00:51:23.429Z,1.90
2022-11-03T00:53:53.259Z,1.70
2022-11-03T00:56:22.597Z,2.05
2022-11-03T00:58:50.708Z,1.75
2022-11-03T01:01:22.696Z,1.70
2022-11-03T01:04:10.371Z,1.70
2022-11-03T01:06:51.194Z,1.85
2022-11-03T01:09:35.860Z,1.98
2022-11-03T01:12:11.116Z,1.70
2022-11-03T01:14:43.015Z,1.90
2022-11-03T01:17:12.660Z,1.90
2022-11-03T01:19:39.564Z,1.75
2022-11-03T01:22:10.627Z,1.65
2022-11-03T01:24:40.426Z,1.88
2022-11-03T01:29:34.354Z,1.58
2022-11-03T01:32:01.250Z,1.75
2022-11-03T01:34:28.074Z,1.65
2022-11-03T01:36:54.903Z,1.92
2022-11-03T01:39:21.817Z,1.63
2022-11-03T01:41:51.621Z,1.60
2022-11-03T01:44:18.383Z,2.05
2022-11-03T01:46:55.581Z,2.00
2022-11-03T01:49:34.169Z,1.80
2022-11-03T01:52:06.132Z,1.70
2022-11-03T01:54:34.732Z,1.90
2022-11-03T01:57:05.967Z,1.70
2022-11-03T01:59:32.967Z,1.73
2022-11-03T02:01:59.864Z,1.85
2022-11-03T02:04:30.196Z,1.92
2022-11-03T02:07:23.032Z,1.60
2022-11-03T02:09:49.991Z,1.70
2022-11-03T02:12:17.284Z,1.90
2022-11-03T02:14:49.621Z,1.50
2022-11-03T02:17:17.327Z,1.80
2022-11-03T02:19:59.955Z,1.75
2022-11-03T02:22:37.683Z,1.70
2022-11-03T02:25:17.837Z,1.55
2022-11-03T02:27:45.042Z,1.90
2022-11-03T02:30:12.063Z,1.60
2022-11-03T02:33:03.094Z,1.70
2022-11-03T02:35:35.862Z,1.67
2022-11-03T02:38:03.843Z,1.80
2022-11-03T02:40:39.018Z,1.52
2022-11-03T02:43:06.466Z,1.80
2022-11-03T02:45:33.532Z,1.63
2022-11-03T02:48:02.369Z,1.40
2022-11-03T02:50:30.956Z,1.45
2022-11-03T02:52:58.242Z,1.80
2022-11-03T02:56:00.497Z,1.80
2022-11-03T02:58:48.775Z,1.90
2022-11-03T03:01:20.243Z,1.70
2022-11-03T03:03:50.497Z,1.80
2022-11-03T03:06:29.986Z,1.88
2022-11-03T03:09:00.986Z,1.42
2022-11-03T03:11:39.848Z,1.63
2022-11-03T03:14:25.104Z,1.58
2022-11-03T03:17:05.850Z,1.70
2022-11-03T03:20:00.828Z,1.70
2022-11-03T03:22:42.718Z,1.60
2022-11-03T03:25:16.377Z,1.60
2022-11-03T03:27:47.575Z,1.85
2022-11-03T03:30:14.696Z,1.70
2022-11-03T03:32:45.100Z,1.58
2022-11-03T03:35:17.094Z,1.63
2022-11-03T03:37:47.272Z,1.40
2022-11-03T03:40:18.526Z,1.63
2022-11-03T03:42:47.099Z,1.60
2022-11-03T03:45:14.474Z,1.60
2022-11-03T03:47:41.351Z,1.75
2022-11-03T03:50:08.540Z,1.60
2022-11-03T03:52:36.145Z,1.55
2022-11-03T03:55:03.055Z,1.27
2022-11-03T03:57:31.558Z,1.63
2022-11-03T03:59:58.544Z,1.60
2022-11-03T04:02:25.477Z,1.60
2022-11-03T04:04:52.416Z,1.65
2022-11-03T04:07:42.495Z,1.63
2022-11-03T04:10:10.946Z,1.73
2022-11-03T04:12:58.909Z,1.48
2022-11-03T04:15:44.163Z,1.63
2022-11-03T04:18:29.546Z,1.58
2022-11-03T04:21:14.850Z,1.65
2022-11-03T04:23:41.734Z,1.30
2022-11-03T04:26:18.648Z,1.45
2022-11-03T04:28:46.087Z,1.58
2022-11-03T04:31:14.210Z,1.50
2022-11-03T04:33:42.094Z,1.67
2022-11-03T04:36:24.651Z,1.65
2022-11-03T04:38:52.446Z,1.75
2022-11-03T04:41:25.490Z,1.35
2022-11-03T04:43:53.005Z,1.60
2022-11-03T04:46:28.422Z,1.30
2022-11-03T04:48:58.991Z,1.55
2022-11-03T04:51:28.425Z,1.60
2022-11-03T04:54:00.548Z,1.65
2022-11-03T04:56:27.563Z,1.50
2022-11-03T04:58:54.492Z,1.48
2022-11-03T05:01:24.585Z,1.50
2022-11-03T05:03:56.705Z,1.55
2022-11-03T05:06:27.762Z,1.35
2022-11-03T05:09:03.240Z,1.50
2022-11-03T05:11:40.170Z,1.55
2022-11-03T05:14:18.803Z,1.45
2022-11-03T05:16:46.588Z,1.70
2022-11-03T05:19:23.404Z,1.20
2022-11-03T05:21:51.274Z,1.42
2022-11-03T05:24:19.857Z,1.70
2022-11-03T05:26:47.344Z,1.55
2022-11-03T05:29:22.988Z,1.33
2022-11-03T05:31:51.844Z,1.70
2022-11-03T05:34:35.965Z,1.50
2022-11-03T05:37:26.103Z,1.70
2022-11-03T05:39:57.013Z,1.48
2022-11-03T05:42:23.801Z,1.30
2022-11-03T05:44:51.450Z,1.50
2022-11-03T05:47:21.796Z,1.60
2022-11-03T05:49:51.103Z,1.40
2022-11-03T05:52:25.609Z,1.52
2022-11-03T05:54:57.900Z,1.30
2022-11-03T05:57:26.251Z,1.73
2022-11-03T05:59:53.036Z,1.33
2022-11-03T06:02:33.575Z,1.67
2022-11-03T06:05:00.427Z,1.63
2022-11-03T06:07:29.116Z,1.80
2022-11-03T06:09:56.289Z,1.52
2022-11-03T06:12:23.222Z,1.75
2022-11-03T06:14:50.064Z,1.75
2022-11-03T06:17:22.675Z,1.50
2022-11-03T06:19:52.135Z,1.50
2022-11-03T06:22:20.992Z,1.50
2022-11-03T06:24:48.009Z,1.50
2022-11-03T06:27:16.803Z,1.23
2022-11-03T06:29:56.310Z,1.50
2022-11-03T06:32:23.172Z,1.73
2022-11-03T06:34:52.803Z,1.48
2022-11-03T06:37:21.822Z,1.45
2022-11-03T06:39:49.545Z,1.60
2022-11-03T06:42:19.872Z,1.40
2022-11-03T06:44:48.903Z,1.67
2022-11-03T06:47:24.190Z,1.40
2022-11-03T06:49:53.199Z,1.52
2022-11-03T06:52:31.658Z,1.70
2022-11-03T06:55:10.834Z,1.70
2022-11-03T06:57:43.133Z,1.50
2022-11-03T07:03:12.584Z,1.70
2022-11-03T07:05:39.786Z,1.95
2022-11-03T07:08:22.487Z,1.70
2022-11-03T07:10:51.951Z,1.65
2022-11-03T07:13:23.829Z,1.58
2022-11-03T07:15:51.239Z,1.40
2022-11-03T07:18:31.506Z,1.52
2022-11-03T07:20:58.868Z,1.70
2022-11-03T07:23:29.469Z,1.45
2022-11-03T07:26:02.556Z,1.60
2022-11-03T07:28:35.753Z,1.73
2022-11-03T07:31:16.277Z,2.15
2022-11-03T07:33:44.060Z,2.20
2022-11-03T07:36:16.790Z,2.20
2022-11-03T07:38:46.273Z,2.53
2022-11-03T07:41:18.875Z,2.40
2022-11-03T07:43:53.410Z,2.72
2022-11-03T07:46:21.488Z,2.15
2022-11-03T07:48:50.401Z,2.63
2022-11-03T07:51:32.493Z,2.30
2022-11-03T07:54:10.175Z,2.78
2022-11-03T07:56:57.396Z,2.83
2022-11-03T07:59:35.736Z,2.75
2022-11-03T08:02:03.529Z,2.80
2022-11-03T08:04:32.010Z,2.60
2022-11-03T08:06:58.891Z,3.10
2022-11-03T08:09:25.789Z,2.80
2022-11-03T08:11:52.760Z,2.58
2022-11-03T08:14:19.861Z,2.42
2022-11-03T08:16:46.847Z,2.70
2022-11-03T08:19:13.755Z,2.63
2022-11-03T08:21:40.564Z,2.83
2022-11-03T08:24:07.433Z,2.72
2022-11-03T08:26:34.273Z,2.60
2022-11-03T08:29:01.156Z,2.42
2022-11-03T08:31:27.990Z,2.63
2022-11-03T08:33:54.805Z,2.60
2022-11-03T08:36:22.046Z,2.60
2022-11-03T08:38:48.918Z,2.50
2022-11-03T08:41:15.900Z,2.40
2022-11-03T08:43:42.719Z,2.60
2022-11-03T08:46:17.204Z,2.58
2022-11-03T08:48:45.324Z,2.67
2022-11-03T08:51:13.908Z,2.08
2022-11-03T08:53:44.433Z,2.42
2022-11-03T08:56:13.646Z,2.35
2022-11-03T08:58:43.983Z,2.53
2022-11-03T09:01:10.999Z,2.22
2022-11-03T09:03:38.188Z,2.30
2022-11-03T09:06:05.519Z,2.50
2022-11-03T09:11:19.187Z,2.25
2022-11-03T09:13:46.007Z,2.40
2022-11-03T09:16:12.843Z,2.30
2022-11-03T09:18:39.658Z,2.28
2022-11-03T09:21:06.659Z,2.25
2022-11-03T09:23:33.457Z,2.28
2022-11-03T09:26:00.319Z,2.45
2022-11-03T09:28:27.160Z,2.78
2022-11-03T09:30:54.768Z,2.20
2022-11-03T09:33:21.586Z,2.25
2022-11-03T09:35:48.422Z,2.22
2022-11-03T09:38:15.307Z,1.90
2022-11-03T09:40:42.213Z,2.00
2022-11-03T09:43:09.484Z,2.17
2022-11-03T09:45:37.945Z,2.20
2022-11-03T09:48:05.719Z,1.92
2022-11-03T09:50:32.979Z,2.30
2022-11-03T09:52:59.771Z,2.10
2022-11-03T09:55:27.651Z,2.42
2022-11-03T09:57:59.944Z,1.90
2022-11-03T10:00:27.417Z,2.30
2022-11-03T10:02:55.152Z,1.90
2022-11-03T10:05:27.195Z,2.00
2022-11-03T10:08:18.347Z,2.30
2022-11-03T10:10:50.381Z,1.88
2022-11-03T10:13:40.490Z,2.40
2022-11-03T10:16:09.276Z,2.42
2022-11-03T10:18:36.945Z,2.20
2022-11-03T10:21:06.363Z,2.17
2022-11-03T10:23:33.430Z,2.05
2022-11-03T10:26:12.367Z,2.10
2022-11-03T10:28:39.565Z,2.25
2022-11-03T10:31:18.592Z,2.20
2022-11-03T10:33:54.618Z,2.10
2022-11-03T10:36:27.764Z,2.15
2022-11-03T10:38:55.642Z,2.08
2022-11-03T10:41:27.534Z,2.10
2022-11-03T10:44:03.153Z,2.35
2022-11-03T10:46:50.145Z,2.70
2022-11-03T10:49:19.629Z,2.67
2022-11-03T10:51:54.176Z,2.75
2022-11-03T10:54:23.408Z,2.63
2022-11-03T10:59:31.757Z,2.35
2022-11-03T11:02:00.031Z,2.30
2022-11-03T11:04:27.269Z,2.35
2022-11-03T11:06:54.327Z,2.25
2022-11-03T11:09:25.570Z,2.45
2022-11-03T11:12:07.137Z,2.13
2022-11-03T11:14:39.479Z,2.38
2022-11-03T11:17:14.144Z,2.30
2022-11-03T11:20:18.887Z,2.38
2022-11-03T11:22:45.968Z,2.13
2022-11-03T11:25:13.113Z,2.58
2022-11-03T11:27:39.888Z,2.58
2022-11-03T11:30:18.944Z,2.38
2022-11-03T11:32:45.753Z,2.40
2022-11-03T11:35:22.874Z,2.40
2022-11-03T11:37:49.724Z,2.75
2022-11-03T11:40:25.755Z,2.38
2022-11-03T11:43:11.636Z,2.35
2022-11-03T11:46:15.819Z,2.30
2022-11-03T11:48:42.693Z,2.40
2022-11-03T11:51:11.355Z,2.42
2022-11-03T11:53:40.543Z,2.67
2022-11-03T11:58:48.092Z,2.45
2022-11-03T12:01:30.901Z,2.35
2022-11-03T12:04:07.004Z,2.80
2022-11-03T12:06:41.398Z,2.90
2022-11-03T12:09:20.851Z,3.00
2022-11-03T12:12:00.779Z,3.05
2022-11-03T12:14:31.959Z,3.03
2022-11-03T12:17:19.679Z,3.55
2022-11-03T12:19:47.713Z,3.20
2022-11-03T12:22:23.695Z,3.28
2022-11-03T12:25:06.693Z,3.60
2022-11-03T12:27:34.058Z,3.67
2022-11-03T12:30:23.383Z,3.50
2022-11-03T12:32:51.696Z,3.10
2022-11-03T12:35:18.635Z,3.63
2022-11-03T12:37:46.176Z,3.40
2022-11-03T12:40:14.308Z,3.60
2022-11-03T12:42:41.186Z,3.50
2022-11-03T12:45:08.800Z,3.60
2022-11-03T12:47:35.702Z,3.38
2022-11-03T12:50:02.590Z,3.38
2022-11-03T12:52:29.398Z,3.22
2022-11-03T12:54:56.935Z,3.42
2022-11-03T12:57:23.744Z,3.53
2022-11-03T12:59:52.303Z,3.47
2022-11-03T13:02:19.401Z,3.20
2022-11-03T13:04:46.423Z,2.88
2022-11-03T13:07:13.248Z,2.90
2022-11-03T13:09:40.121Z,2.83
2022-11-03T13:12:30.517Z,2.50
2022-11-03T13:15:02.105Z,2.95
2022-11-03T13:17:32.274Z,2.75
2022-11-03T13:20:14.556Z,3.08
2022-11-03T13:22:41.656Z,2.67
2022-11-03T13:25:09.132Z,3.72
2022-11-03T13:27:36.040Z,3.28
2022-11-03T13:30:03.194Z,3.22
2022-11-03T13:32:30.067Z,3.78
2022-11-03T13:34:56.908Z,3.25
2022-11-03T13:37:23.865Z,2.90
2022-11-03T13:39:50.691Z,3.17
2022-11-03T13:42:17.532Z,2.97
2022-11-03T13:44:44.449Z,3.30
2022-11-03T13:47:11.983Z,3.15
2022-11-03T13:52:25.943Z,3.22
2022-11-03T14:00:26.723Z,3.20
2022-11-03T14:05:40.468Z,3.10
2022-11-03T14:08:07.587Z,2.97
2022-11-03T14:10:34.603Z,3.13
2022-11-03T14:13:01.444Z,2.90
2022-11-03T14:15:28.304Z,3.00
2022-11-03T14:17:55.123Z,2.58
2022-11-03T14:20:22.069Z,2.88
2022-11-03T14:22:48.938Z,3.00
2022-11-03T14:25:15.818Z,3.00
2022-11-03T14:27:42.920Z,2.85
2022-11-03T14:30:10.930Z,3.35
2022-11-03T14:32:37.846Z,2.85
2022-11-03T14:35:05.479Z,2.70
2022-11-03T14:37:33.051Z,3.00
2022-11-03T14:40:00.035Z,2.65
2022-11-03T14:42:26.881Z,3.08
2022-11-03T14:47:25.718Z,3.20
2022-11-03T14:49:52.585Z,3.80
2022-11-03T14:52:19.474Z,3.50
2022-11-03T14:54:46.349Z,3.28
2022-11-03T14:57:13.240Z,3.20
2022-11-03T14:59:40.119Z,3.10
2022-11-03T15:02:07.262Z,3.00
2022-11-03T15:04:34.411Z,6.03
2022-11-03T15:07:01.285Z,5.25
2022-11-03T15:09:28.175Z,4.28
2022-11-03T15:11:55.108Z,3.80
2022-11-03T15:14:21.958Z,3.85
2022-11-03T15:16:48.872Z,3.55
2022-11-03T15:19:15.937Z,3.65
2022-11-03T15:21:42.867Z,3.72
2022-11-03T15:26:56.748Z,3.67
2022-11-03T15:29:24.116Z,2.97
2022-11-03T15:31:51.165Z,2.92
2022-11-03T15:34:18.182Z,3.10
2022-11-03T15:36:45.222Z,3.28
2022-11-03T15:39:13.172Z,2.92
2022-11-03T15:41:40.039Z,2.80
2022-11-03T15:44:06.858Z,2.88
2022-11-03T15:46:35.330Z,2.88
2022-11-03T15:49:02.581Z,2.90
2022-11-03T15:51:29.387Z,3.00
2022-11-03T15:53:58.817Z,2.83
2022-11-03T15:56:27.331Z,2.65
2022-11-03T15:58:54.206Z,2.60
2022-11-03T16:01:21.336Z,2.60
2022-11-03T16:03:48.401Z,2.72
2022-11-03T16:06:15.211Z,2.75
2022-11-03T16:08:42.107Z,2.97
2022-11-03T16:11:09.153Z,2.70
2022-11-03T16:13:36.233Z,2.50
2022-11-03T16:16:03.163Z,2.55
2022-11-03T16:18:30.119Z,2.70
2022-11-03T16:20:56.950Z,2.70
2022-11-03T16:23:23.869Z,2.33
2022-11-03T16:25:50.739Z,2.63
2022-11-03T16:28:17.842Z,2.50
2022-11-03T16:30:48.461Z,2.53
2022-11-03T16:33:18.130Z,2.53
2022-11-03T16:35:44.990Z,3.30
2022-11-03T16:38:13.548Z,6.65
2022-11-03T16:40:40.413Z,6.53
2022-11-03T16:43:07.512Z,4.88
2022-11-03T16:45:37.742Z,4.57
2022-11-03T16:48:06.145Z,4.00
2022-11-03T16:50:33.612Z,3.80
2022-11-03T16:53:00.423Z,4.10
2022-11-03T16:55:27.247Z,4.07
2022-11-03T16:57:54.130Z,4.38
2022-11-03T17:00:21.323Z,4.22
2022-11-03T17:02:48.367Z,4.20
2022-11-03T17:05:17.450Z,3.92
2022-11-03T17:10:18.895Z,3.42
2022-11-03T17:12:45.762Z,3.88
2022-11-03T17:15:12.651Z,3.50
2022-11-03T17:17:39.530Z,3.35
2022-11-03T17:20:07.203Z,3.40
2022-11-03T17:22:34.069Z,3.35
2022-11-03T17:25:01.727Z,3.58
2022-11-03T17:27:33.000Z,3.67
2022-11-03T17:30:01.781Z,3.38
2022-11-03T17:32:40.319Z,3.20
2022-11-03T17:35:16.824Z,3.25
2022-11-03T17:37:44.057Z,3.22
2022-11-03T17:40:15.818Z,3.55
2022-11-03T17:42:42.767Z,3.25
2022-11-03T17:45:13.627Z,3.00
2022-11-03T17:47:40.891Z,3.28
2022-11-03T17:50:09.008Z,2.92
2022-11-03T17:52:36.462Z,3.03
2022-11-03T17:55:05.244Z,3.30
2022-11-03T17:57:32.090Z,3.20
2022-11-03T18:00:02.728Z,3.20
2022-11-03T18:02:37.817Z,3.10
2022-11-03T18:05:27.127Z,3.53
2022-11-03T18:07:54.906Z,3.15
2022-11-03T18:10:32.820Z,3.22
2022-11-03T18:13:16.874Z,2.90
2022-11-03T18:15:45.548Z,2.80
2022-11-03T18:18:18.745Z,2.92
2022-11-03T18:20:53.933Z,3.15
2022-11-03T18:23:26.617Z,3.10
2022-11-03T18:25:53.892Z,3.33
2022-11-03T18:28:20.850Z,2.95
2022-11-03T18:30:49.773Z,3.00
2022-11-03T18:33:34.333Z,3.05
2022-11-03T18:36:06.321Z,2.80
2022-11-03T18:38:35.511Z,3.10
2022-11-03T18:43:29.268Z,2.95
2022-11-03T18:45:56.099Z,2.90
2022-11-03T18:48:24.021Z,2.65
2022-11-03T18:50:54.501Z,2.90
2022-11-03T18:53:23.975Z,2.90
2022-11-03T18:55:51.273Z,2.97
2022-11-03T18:58:23.598Z,2.83
2022-11-03T19:00:51.268Z,3.05
2022-11-03T19:03:20.720Z,2.92
2022-11-03T19:05:49.370Z,3.03
2022-11-03T19:08:31.707Z,3.42
2022-11-03T19:11:03.696Z,3.03
2022-11-03T19:13:37.569Z,3.03
2022-11-03T19:16:13.505Z,2.80
2022-11-03T19:18:40.830Z,3.35
2022-11-03T19:21:18.720Z,2.95
2022-11-03T19:23:48.022Z,2.95
2022-11-03T19:26:46.441Z,3.20
2022-11-03T19:29:19.859Z,3.38
2022-11-03T19:31:48.773Z,3.13
2022-11-03T19:34:24.038Z,3.03
2022-11-03T19:36:51.895Z,3.50
2022-11-03T19:39:22.365Z,3.35
2022-11-03T19:42:07.664Z,3.60
2022-11-03T19:47:02.408Z,3.38
2022-11-03T19:49:29.210Z,3.60
2022-11-03T19:51:56.381Z,3.42
2022-11-03T19:54:23.676Z,3.40
2022-11-03T19:56:51.326Z,3.60
2022-11-03T19:59:18.513Z,3.50
2022-11-03T20:01:45.486Z,3.40
2022-11-03T20:04:12.539Z,3.40
2022-11-03T20:06:40.994Z,3.03
2022-11-03T20:09:10.310Z,3.33
2022-11-03T20:11:37.264Z,3.40
2022-11-03T20:14:04.544Z,3.10
2022-11-03T20:16:31.765Z,3.35
2022-11-03T20:18:58.542Z,3.10
2022-11-03T20:21:31.380Z,3.03
2022-11-03T20:24:00.935Z,3.33
2022-11-03T20:26:28.643Z,3.40
2022-11-03T20:28:56.703Z,3.17
2022-11-03T20:31:33.532Z,3.10
2022-11-03T20:34:00.382Z,3.25
2022-11-03T20:36:27.308Z,3.00
2022-11-03T20:38:59.067Z,3.10
2022-11-03T20:41:29.590Z,2.80
2022-11-03T20:43:56.827Z,2.92
2022-11-03T20:46:32.682Z,3.15
2022-11-03T20:48:59.702Z,2.67
2022-11-03T20:51:32.637Z,2.80
2022-11-03T20:53:59.557Z,3.00
2022-11-03T20:56:28.397Z,2.80
2022-11-03T20:58:55.771Z,3.00
2022-11-03T21:01:32.988Z,2.95
2022-11-03T21:04:01.772Z,2.90
2022-11-03T21:06:30.549Z,2.90
2022-11-03T21:08:57.806Z,2.53
2022-11-03T21:11:29.943Z,2.80
2022-11-03T21:14:00.017Z,2.85
2022-11-03T21:16:46.466Z,2.60
2022-11-03T21:19:40.455Z,2.58
2022-11-03T21:25:13.810Z,3.00
2022-11-03T21:27:42.117Z,3.13
2022-11-03T21:30:14.090Z,2.85
2022-11-03T21:32:41.511Z,2.80
2022-11-03T21:35:14.673Z,3.00
2022-11-03T21:37:41.614Z,2.80
2022-11-03T21:40:09.070Z,3.00
2022-11-03T21:42:54.561Z,2.80
2022-11-03T21:45:21.393Z,2.88
2022-11-03T21:48:12.794Z,2.75
2022-11-03T21:50:40.604Z,2.65
2022-11-03T21:53:07.836Z,2.95
2022-11-03T21:55:35.156Z,2.70
2022-11-03T21:58:02.671Z,2.60
2022-11-03T22:00:31.099Z,2.78
2022-11-03T22:02:59.217Z,2.63
2022-11-03T22:05:26.565Z,2.50
2022-11-03T22:07:53.567Z,2.58
2022-11-03T22:10:20.814Z,2.40
2022-11-03T22:12:47.716Z,2.70
2022-11-03T22:15:33.254Z,2.42
2022-11-03T22:18:04.888Z,2.70
2022-11-03T22:20:50.284Z,2.60
2022-11-03T22:23:35.553Z,2.55
2022-11-03T22:26:20.888Z,2.47
2022-11-03T22:29:07.669Z,2.67
2022-11-03T22:31:40.661Z,2.40
2022-11-03T22:34:26.170Z,2.97
2022-11-03T22:36:53.014Z,2.20
2022-11-03T22:39:38.451Z,2.50
2022-11-03T22:42:24.008Z,2.38
2022-11-03T22:45:09.321Z,2.65
2022-11-03T22:47:36.160Z,2.30
2022-11-03T22:50:03.016Z,2.55
2022-11-03T22:52:29.825Z,2.40
2022-11-03T22:54:56.735Z,2.53
2022-11-03T22:57:23.592Z,2.45
2022-11-03T22:59:50.431Z,2.38
2022-11-03T23:02:17.302Z,2.35
2022-11-03T23:04:46.237Z,2.40
2022-11-03T23:07:13.097Z,2.40
2022-11-03T23:09:40.316Z,2.45
2022-11-03T23:12:08.384Z,2.38
2022-11-03T23:14:53.822Z,2.33
2022-11-03T23:17:40.981Z,2.25
2022-11-03T23:20:27.371Z,2.40
2022-11-03T23:22:54.316Z,2.50
2022-11-03T23:25:21.136Z,2.50
2022-11-03T23:27:47.931Z,2.53
2022-11-03T23:30:14.705Z,2.30
2022-11-03T23:32:41.614Z,2.20
2022-11-03T23:35:08.955Z,2.30
2022-11-03T23:37:35.869Z,2.30
2022-11-03T23:40:02.740Z,2.30
2022-11-03T23:42:29.563Z,2.20
2022-11-03T23:45:15.136Z,2.58
2022-11-03T23:48:00.713Z,2.10
2022-11-03T23:50:27.639Z,2.15
2022-11-03T23:52:54.490Z,2.33
2022-11-03T23:55:21.351Z,2.15
2022-11-03T23:58:06.971Z,2.40
